createdAt,value
2018-08-03T00:01:51.846Z,96.30
2018-08-03T00:11:57.886Z,97.00
2018-08-03T00:17:00.955Z,96.40
2018-08-03T00:22:04.040Z,96.60
2018-08-03T00:27:07.204Z,96.50
2018-08-03T00:32:10.264Z,98.60
2018-08-03T00:37:13.315Z,97.10
2018-08-03T00:42:16.435Z,96.30
2018-08-03T00:47:19.492Z,97.20
2018-08-03T00:52:22.549Z,97.40
2018-08-03T00:57:25.592Z,96.80
2018-08-03T01:02:28.709Z,97.00
2018-08-03T01:07:31.770Z,97.70
2018-08-03T01:12:34.845Z,97.40
2018-08-03T01:17:37.869Z,97.90
2018-08-03T01:22:40.922Z,98.60
2018-08-03T01:27:44.238Z,98.90
2018-08-03T01:32:47.291Z,98.20
2018-08-03T01:37:50.640Z,98.20
2018-08-03T01:42:53.643Z,98.30
2018-08-03T01:47:56.697Z,98.20
2018-08-03T01:52:59.733Z,98.20
2018-08-03T01:58:02.840Z,97.50
2018-08-03T02:03:06.035Z,98.20
2018-08-03T02:08:09.120Z,98.10
2018-08-03T02:13:12.151Z,98.30
2018-08-03T02:18:15.243Z,98.00
2018-08-03T02:23:18.341Z,98.10
2018-08-03T02:28:21.393Z,98.30
2018-08-03T02:33:24.596Z,98.80
2018-08-03T02:38:27.747Z,98.40
2018-08-03T02:43:30.814Z,99.10
2018-08-03T02:48:33.864Z,99.00
2018-08-03T02:53:36.971Z,99.30
2018-08-03T02:58:40.049Z,99.20
2018-08-03T03:03:43.133Z,99.00
2018-08-03T03:08:46.206Z,99.10
2018-08-03T03:13:49.244Z,98.50
2018-08-03T03:18:52.695Z,98.70
2018-08-03T03:23:55.900Z,98.90
2018-08-03T03:28:59.008Z,98.70
2018-08-03T03:34:02.113Z,98.60
2018-08-03T03:39:08.679Z,98.70
2018-08-03T03:44:11.758Z,98.80
2018-08-03T03:49:14.815Z,99.00
2018-08-03T03:54:17.884Z,99.10
2018-08-03T03:59:21.024Z,99.00
2018-08-03T04:04:24.077Z,98.80
2018-08-03T04:09:27.105Z,98.40
2018-08-03T04:14:30.154Z,99.00
2018-08-03T04:19:33.224Z,99.90
2018-08-03T04:24:36.308Z,99.90
2018-08-03T04:29:39.540Z,99.90
2018-08-03T04:34:42.576Z,99.90
2018-08-03T04:39:45.816Z,99.90
2018-08-03T04:44:48.858Z,99.90
2018-08-03T04:49:51.895Z,99.90
2018-08-03T04:54:54.948Z,99.90
2018-08-03T05:05:00.881Z,99.90
2018-08-03T05:10:04.137Z,99.90
2018-08-03T05:15:08.007Z,99.90
2018-08-03T05:20:11.055Z,99.90
2018-08-03T05:25:14.108Z,99.90
2018-08-03T05:30:17.180Z,99.90
2018-08-03T05:35:20.334Z,99.90
2018-08-03T05:40:23.403Z,99.90
2018-08-03T05:45:26.496Z,99.90
2018-08-03T05:50:30.596Z,99.90
2018-08-03T05:55:33.780Z,99.90
2018-08-03T06:00:36.923Z,99.90
2018-08-03T06:05:40.056Z,99.90
2018-08-03T06:10:43.151Z,99.90
2018-08-03T06:15:46.342Z,99.90
2018-08-03T06:20:49.537Z,99.90
2018-08-03T06:25:52.759Z,99.90
2018-08-03T06:30:55.851Z,99.90
2018-08-03T06:35:58.957Z,99.90
2018-08-03T06:41:02.212Z,99.90
2018-08-03T06:46:05.280Z,99.90
2018-08-03T06:51:08.437Z,99.90
2018-08-03T06:56:11.491Z,99.90
2018-08-03T07:01:14.585Z,99.90
2018-08-03T07:06:17.716Z,99.90
2018-08-03T07:11:20.808Z,99.90
2018-08-03T07:16:23.949Z,96.60
2018-08-03T07:21:27.437Z,92.10
2018-08-03T07:26:30.567Z,92.20
2018-08-03T07:31:33.638Z,88.10
2018-08-03T07:36:36.672Z,87.90
2018-08-03T07:41:39.816Z,84.30
2018-08-03T07:46:42.854Z,80.10
2018-08-03T07:51:45.933Z,77.40
2018-08-03T07:56:49.002Z,75.60
2018-08-03T08:01:52.044Z,72.10
2018-08-03T08:06:55.098Z,68.30
2018-08-03T08:11:58.152Z,66.80
2018-08-03T08:17:01.217Z,64.00
2018-08-03T08:27:07.148Z,62.80
2018-08-03T08:32:10.224Z,62.40
2018-08-03T08:42:16.222Z,60.80
2018-08-03T08:47:19.349Z,58.90
2018-08-03T08:52:22.488Z,59.60
2018-08-03T08:57:25.547Z,61.10
2018-08-03T09:02:29.058Z,62.70
2018-08-03T09:07:32.216Z,62.80
2018-08-03T09:12:35.377Z,63.60
2018-08-03T09:17:39.406Z,60.00
2018-08-03T09:22:42.485Z,62.90
2018-08-03T09:27:45.636Z,62.40
2018-08-03T09:32:48.711Z,61.00
2018-08-03T09:37:51.749Z,64.00
2018-08-03T09:42:54.943Z,63.40
2018-08-03T09:47:57.992Z,59.50
2018-08-03T09:53:02.220Z,60.70
2018-08-03T09:58:08.435Z,61.00
2018-08-03T10:03:11.520Z,59.50
2018-08-03T10:08:14.580Z,62.40
2018-08-03T10:13:17.678Z,60.60
2018-08-03T10:18:20.793Z,61.20
2018-08-03T10:23:24.110Z,61.30
2018-08-03T10:28:27.158Z,61.60
2018-08-03T10:33:31.430Z,62.40
2018-08-03T10:38:34.531Z,61.10
2018-08-03T10:43:37.662Z,61.00
2018-08-03T10:48:40.776Z,61.10
2018-08-03T10:58:46.753Z,60.70
2018-08-03T11:03:49.920Z,59.80
2018-08-03T11:13:56.054Z,60.50
2018-08-03T11:24:02.511Z,59.60
2018-08-03T11:29:05.448Z,58.70
2018-08-03T11:34:08.523Z,59.50
2018-08-03T11:39:12.231Z,60.00
2018-08-03T11:44:15.296Z,60.30
2018-08-03T11:49:18.308Z,58.90
2018-08-03T11:54:21.392Z,57.40
2018-08-03T11:59:24.428Z,57.90
2018-08-03T12:04:27.507Z,60.00
2018-08-03T12:09:30.563Z,58.10
2018-08-03T12:14:33.659Z,57.30
2018-08-03T12:19:36.784Z,57.70
2018-08-03T12:24:39.827Z,56.90
2018-08-03T12:29:43.044Z,57.30
2018-08-03T12:34:46.202Z,58.80
2018-08-03T12:39:49.275Z,57.70
2018-08-03T12:44:52.398Z,56.60
2018-08-03T12:49:55.488Z,56.60
2018-08-03T12:54:58.538Z,57.50
2018-08-03T13:00:01.821Z,55.70
2018-08-03T13:10:07.870Z,55.40
2018-08-03T13:15:10.965Z,58.00
2018-08-03T13:20:14.052Z,55.90
2018-08-03T13:25:17.101Z,56.20
2018-08-03T13:30:20.180Z,56.10
2018-08-03T13:35:23.236Z,56.60
2018-08-03T13:40:26.356Z,55.90
2018-08-03T13:45:29.630Z,57.10
2018-08-03T13:50:32.692Z,57.00
2018-08-03T13:55:35.780Z,57.20
2018-08-03T14:00:39.074Z,58.00
2018-08-03T14:05:42.168Z,55.90
2018-08-03T14:10:45.239Z,56.50
2018-08-03T14:15:48.276Z,57.50
2018-08-03T14:20:51.493Z,56.00
2018-08-03T14:25:54.627Z,55.20
2018-08-03T14:30:57.704Z,57.20
2018-08-03T14:36:00.748Z,56.70
2018-08-03T14:41:03.813Z,56.70
2018-08-03T14:46:07.100Z,55.60
2018-08-03T14:51:10.185Z,55.40
2018-08-03T14:56:13.217Z,55.20
2018-08-03T15:01:16.288Z,57.40
2018-08-03T15:06:19.331Z,56.00
2018-08-03T15:11:22.477Z,56.20
2018-08-03T15:16:25.593Z,56.20
2018-08-03T15:21:28.844Z,55.90
2018-08-03T15:26:31.868Z,56.00
2018-08-03T15:31:34.915Z,54.40
2018-08-03T15:36:38.225Z,55.90
2018-08-03T15:41:41.289Z,54.90
2018-08-03T15:46:44.358Z,54.40
2018-08-03T15:51:48.561Z,54.20
2018-08-03T16:01:54.526Z,54.70
2018-08-03T16:06:57.652Z,57.80
2018-08-03T16:12:00.753Z,55.30
2018-08-03T16:17:03.784Z,54.40
2018-08-03T16:22:06.836Z,56.90
2018-08-03T16:27:09.879Z,55.10
2018-08-03T16:32:12.923Z,57.60
2018-08-03T16:37:16.017Z,56.20
2018-08-03T16:42:19.280Z,55.40
2018-08-03T16:47:22.347Z,56.70
2018-08-03T16:52:25.400Z,56.30
2018-08-03T16:57:28.480Z,57.80
2018-08-03T17:02:31.574Z,58.70
2018-08-03T17:07:34.636Z,57.40
2018-08-03T17:12:37.743Z,58.70
2018-08-03T17:17:40.914Z,60.30
2018-08-03T17:22:44.065Z,60.10
2018-08-03T17:27:47.133Z,58.50
2018-08-03T17:32:50.196Z,59.20
2018-08-03T17:42:56.222Z,59.40
2018-08-03T17:47:59.278Z,60.90
2018-08-03T17:53:02.342Z,60.60
2018-08-03T17:58:05.436Z,60.30
2018-08-03T18:03:08.489Z,63.70
2018-08-03T18:08:11.696Z,61.40
2018-08-03T18:13:14.837Z,61.30
2018-08-03T18:18:17.927Z,62.80
2018-08-03T18:23:20.985Z,63.80
2018-08-03T18:33:26.396Z,64.40
2018-08-03T18:38:29.556Z,66.80
2018-08-03T18:43:32.658Z,68.10
2018-08-03T18:48:36.958Z,66.10
2018-08-03T18:53:40.046Z,67.10
2018-08-03T18:58:43.109Z,67.70
2018-08-03T19:03:46.199Z,67.70
2018-08-03T19:08:49.456Z,70.30
2018-08-03T19:13:52.592Z,72.00
2018-08-03T19:18:55.716Z,73.60
2018-08-03T19:23:58.797Z,74.40
2018-08-03T19:29:05.570Z,74.50
2018-08-03T19:34:08.662Z,73.10
2018-08-03T19:39:12.275Z,71.60
2018-08-03T19:44:15.466Z,71.00
2018-08-03T19:49:18.570Z,70.20
2018-08-03T19:54:21.660Z,71.80
2018-08-03T19:59:24.774Z,72.80
2018-08-03T20:04:27.848Z,73.00
2018-08-03T20:09:30.920Z,75.40
2018-08-03T20:14:34.286Z,75.80
2018-08-03T20:19:37.498Z,75.60
2018-08-03T20:24:40.599Z,75.70
2018-08-03T20:29:43.964Z,76.00
2018-08-03T20:34:47.068Z,78.30
2018-08-03T20:39:50.419Z,78.30
2018-08-03T20:44:53.508Z,79.50
2018-08-03T20:49:56.640Z,84.30
2018-08-03T20:54:59.811Z,91.60
2018-08-03T21:00:03.016Z,92.10
2018-08-03T21:05:06.375Z,92.20
2018-08-03T21:10:09.477Z,90.70
2018-08-03T21:15:12.561Z,92.10
2018-08-03T21:20:15.738Z,93.40
2018-08-03T21:25:18.900Z,94.10
2018-08-03T21:35:24.880Z,94.20
2018-08-03T21:40:28.055Z,94.60
2018-08-03T21:45:31.318Z,93.90
2018-08-03T21:50:34.425Z,91.70
2018-08-03T21:55:37.699Z,91.80
2018-08-03T22:00:40.806Z,94.20
2018-08-03T22:05:43.964Z,97.10
2018-08-03T22:10:47.129Z,96.10
2018-08-03T22:15:50.241Z,93.80
2018-08-03T22:20:53.358Z,91.70
2018-08-03T22:25:56.503Z,92.40
2018-08-03T22:30:59.621Z,92.40
2018-08-03T22:36:02.742Z,91.00
2018-08-03T22:41:05.830Z,90.90
2018-08-03T22:46:09.093Z,90.90
2018-08-03T22:51:12.333Z,92.10
2018-08-03T22:56:15.480Z,91.80
2018-08-03T23:01:18.536Z,92.00
2018-08-03T23:06:21.843Z,93.70
2018-08-03T23:11:25.052Z,94.70
2018-08-03T23:16:28.516Z,95.60
2018-08-03T23:21:31.972Z,96.00
2018-08-03T23:26:35.072Z,97.80
2018-08-03T23:31:38.149Z,98.50
2018-08-03T23:41:44.209Z,99.00
2018-08-03T23:46:47.264Z,99.60
2018-08-03T23:51:50.422Z,99.00
2018-08-03T23:56:53.571Z,98.60
